sensor_id;sensor_type;location;lat;lon;timestamp;temperature;humidity
13426;DHT22;6785;57.918;12.530;2022-07-12T00:00:03;12.10;99.90
13426;DHT22;6785;57.918;12.530;2022-07-12T00:02:30;12.10;99.90
13426;DHT22;6785;57.918;12.530;2022-07-12T00:04:57;12.10;99.90
13426;DHT22;6785;57.918;12.530;2022-07-12T00:07:25;12.10;99.90
13426;DHT22;6785;57.918;12.530;2022-07-12T00:09:52;12.00;99.90
13426;DHT22;6785;57.918;12.530;2022-07-12T00:12:19;12.00;99.90
13426;DHT22;6785;57.918;12.530;2022-07-12T00:14:46;11.90;99.90
13426;DHT22;6785;57.918;12.530;2022-07-12T00:17:13;11.90;99.90
13426;DHT22;6785;57.918;12.530;2022-07-12T00:19:40;11.70;99.90
13426;DHT22;6785;57.918;12.530;2022-07-12T00:22:07;11.70;99.90
13426;DHT22;6785;57.918;12.530;2022-07-12T00:24:35;11.70;99.90
13426;DHT22;6785;57.918;12.530;2022-07-12T00:27:03;11.70;99.90
13426;DHT22;6785;57.918;12.530;2022-07-12T00:29:29;11.70;99.90
13426;DHT22;6785;57.918;12.530;2022-07-12T00:31:56;11.60;99.90
13426;DHT22;6785;57.918;12.530;2022-07-12T00:34:23;11.60;99.90
13426;DHT22;6785;57.918;12.530;2022-07-12T00:36:50;11.50;99.90
13426;DHT22;6785;57.918;12.530;2022-07-12T00:39:17;11.50;99.90
13426;DHT22;6785;57.918;12.530;2022-07-12T00:41:49;11.50;99.90
13426;DHT22;6785;57.918;12.530;2022-07-12T00:44:16;11.40;99.90
13426;DHT22;6785;57.918;12.530;2022-07-12T00:46:43;11.40;99.90
13426;DHT22;6785;57.918;12.530;2022-07-12T00:49:10;11.40;99.90
13426;DHT22;6785;57.918;12.530;2022-07-12T00:51:41;11.40;99.90
13426;DHT22;6785;57.918;12.530;2022-07-12T00:54:08;11.40;99.90
13426;DHT22;6785;57.918;12.530;2022-07-12T00:56:35;11.40;99.90
13426;DHT22;6785;57.918;12.530;2022-07-12T00:59:03;11.30;99.90
13426;DHT22;6785;57.918;12.530;2022-07-12T01:01:30;11.30;99.90
13426;DHT22;6785;57.918;12.530;2022-07-12T01:03:57;11.30;99.90
13426;DHT22;6785;57.918;12.530;2022-07-12T01:06:24;11.20;99.90
13426;DHT22;6785;57.918;12.530;2022-07-12T01:08:52;11.30;99.90
13426;DHT22;6785;57.918;12.530;2022-07-12T01:11:19;11.20;99.90
13426;DHT22;6785;57.918;12.530;2022-07-12T01:13:47;11.20;99.90
13426;DHT22;6785;57.918;12.530;2022-07-12T01:16:17;11.30;99.90
13426;DHT22;6785;57.918;12.530;2022-07-12T01:18:45;11.30;99.90
13426;DHT22;6785;57.918;12.530;2022-07-12T01:21:18;11.20;99.90
13426;DHT22;6785;57.918;12.530;2022-07-12T01:23:47;11.10;99.90
13426;DHT22;6785;57.918;12.530;2022-07-12T01:26:14;11.00;99.90
13426;DHT22;6785;57.918;12.530;2022-07-12T01:28:41;11.00;99.90
13426;DHT22;6785;57.918;12.530;2022-07-12T01:31:08;10.90;99.90
13426;DHT22;6785;57.918;12.530;2022-07-12T01:33:35;10.90;99.90
13426;DHT22;6785;57.918;12.530;2022-07-12T01:36:03;10.90;99.90
13426;DHT22;6785;57.918;12.530;2022-07-12T01:38:30;10.80;99.90
13426;DHT22;6785;57.918;12.530;2022-07-12T01:40:59;10.80;99.90
13426;DHT22;6785;57.918;12.530;2022-07-12T01:43:28;10.70;99.90
13426;DHT22;6785;57.918;12.530;2022-07-12T01:45:55;10.70;99.90
13426;DHT22;6785;57.918;12.530;2022-07-12T01:48:21;10.70;99.90
13426;DHT22;6785;57.918;12.530;2022-07-12T01:50:48;10.60;99.90
13426;DHT22;6785;57.918;12.530;2022-07-12T01:53:16;10.60;99.90
13426;DHT22;6785;57.918;12.530;2022-07-12T01:55:43;10.60;99.90
13426;DHT22;6785;57.918;12.530;2022-07-12T01:58:13;10.50;99.90
13426;DHT22;6785;57.918;12.530;2022-07-12T02:00:40;10.50;99.90
13426;DHT22;6785;57.918;12.530;2022-07-12T02:03:07;10.60;99.90
13426;DHT22;6785;57.918;12.530;2022-07-12T02:05:35;10.70;99.90
13426;DHT22;6785;57.918;12.530;2022-07-12T02:08:02;10.70;99.90
13426;DHT22;6785;57.918;12.530;2022-07-12T02:10:30;10.70;99.90
13426;DHT22;6785;57.918;12.530;2022-07-12T02:12:57;10.70;99.90
13426;DHT22;6785;57.918;12.530;2022-07-12T02:15:26;10.70;99.90
13426;DHT22;6785;57.918;12.530;2022-07-12T02:17:53;10.70;99.90
13426;DHT22;6785;57.918;12.530;2022-07-12T02:20:20;10.60;99.90
13426;DHT22;6785;57.918;12.530;2022-07-12T02:22:46;10.60;99.90
13426;DHT22;6785;57.918;12.530;2022-07-12T02:25:13;10.70;99.90
13426;DHT22;6785;57.918;12.530;2022-07-12T02:27:41;10.70;99.90
13426;DHT22;6785;57.918;12.530;2022-07-12T02:30:09;10.70;99.90
13426;DHT22;6785;57.918;12.530;2022-07-12T02:32:38;10.70;99.90
13426;DHT22;6785;57.918;12.530;2022-07-12T02:35:05;10.60;99.90
13426;DHT22;6785;57.918;12.530;2022-07-12T02:37:32;10.50;99.90
13426;DHT22;6785;57.918;12.530;2022-07-12T02:39:59;10.60;99.90
13426;DHT22;6785;57.918;12.530;2022-07-12T02:42:40;10.60;99.90
13426;DHT22;6785;57.918;12.530;2022-07-12T02:45:07;10.60;99.90
13426;DHT22;6785;57.918;12.530;2022-07-12T02:47:37;10.60;99.90
13426;DHT22;6785;57.918;12.530;2022-07-12T02:50:05;10.60;99.90
13426;DHT22;6785;57.918;12.530;2022-07-12T02:52:32;10.60;99.90
13426;DHT22;6785;57.918;12.530;2022-07-12T02:54:59;10.60;99.90
13426;DHT22;6785;57.918;12.530;2022-07-12T02:57:26;10.60;99.90
13426;DHT22;6785;57.918;12.530;2022-07-12T02:59:52;10.70;99.90
13426;DHT22;6785;57.918;12.530;2022-07-12T03:02:19;10.60;99.90
13426;DHT22;6785;57.918;12.530;2022-07-12T03:04:48;10.60;99.90
13426;DHT22;6785;57.918;12.530;2022-07-12T03:07:14;10.60;99.90
13426;DHT22;6785;57.918;12.530;2022-07-12T03:09:46;10.70;99.90
13426;DHT22;6785;57.918;12.530;2022-07-12T03:12:13;10.70;99.90
13426;DHT22;6785;57.918;12.530;2022-07-12T03:14:39;10.60;99.90
13426;DHT22;6785;57.918;12.530;2022-07-12T03:17:06;10.60;99.90
13426;DHT22;6785;57.918;12.530;2022-07-12T03:19:33;10.60;99.90
13426;DHT22;6785;57.918;12.530;2022-07-12T03:22:01;10.70;99.90
13426;DHT22;6785;57.918;12.530;2022-07-12T03:24:28;10.60;99.90
13426;DHT22;6785;57.918;12.530;2022-07-12T03:26:55;10.60;99.90
13426;DHT22;6785;57.918;12.530;2022-07-12T03:29:22;10.60;99.90
13426;DHT22;6785;57.918;12.530;2022-07-12T03:31:49;10.70;99.90
13426;DHT22;6785;57.918;12.530;2022-07-12T03:34:15;10.70;99.90
13426;DHT22;6785;57.918;12.530;2022-07-12T03:36:42;10.80;99.90
13426;DHT22;6785;57.918;12.530;2022-07-12T03:39:11;10.80;99.90
13426;DHT22;6785;57.918;12.530;2022-07-12T03:41:37;10.80;99.90
13426;DHT22;6785;57.918;12.530;2022-07-12T03:44:04;10.90;99.90
13426;DHT22;6785;57.918;12.530;2022-07-12T03:46:31;11.00;99.90
13426;DHT22;6785;57.918;12.530;2022-07-12T03:48:58;11.00;99.90
13426;DHT22;6785;57.918;12.530;2022-07-12T03:51:26;11.10;99.90
13426;DHT22;6785;57.918;12.530;2022-07-12T03:53:52;11.10;99.90
13426;DHT22;6785;57.918;12.530;2022-07-12T03:56:21;11.10;99.90
13426;DHT22;6785;57.918;12.530;2022-07-12T03:59:02;11.20;99.90
13426;DHT22;6785;57.918;12.530;2022-07-12T04:01:29;11.20;99.90
13426;DHT22;6785;57.918;12.530;2022-07-12T04:03:56;11.30;99.90
13426;DHT22;6785;57.918;12.530;2022-07-12T04:06:22;11.40;99.90
13426;DHT22;6785;57.918;12.530;2022-07-12T04:08:49;11.30;99.90
13426;DHT22;6785;57.918;12.530;2022-07-12T04:11:16;11.40;99.90
13426;DHT22;6785;57.918;12.530;2022-07-12T04:13:44;11.50;99.90
13426;DHT22;6785;57.918;12.530;2022-07-12T04:16:11;11.70;99.90
13426;DHT22;6785;57.918;12.530;2022-07-12T04:18:38;11.70;99.90
13426;DHT22;6785;57.918;12.530;2022-07-12T04:21:05;11.90;99.90
13426;DHT22;6785;57.918;12.530;2022-07-12T04:23:32;11.90;99.90
13426;DHT22;6785;57.918;12.530;2022-07-12T04:25:59;12.10;99.90
13426;DHT22;6785;57.918;12.530;2022-07-12T04:28:26;12.20;99.90
13426;DHT22;6785;57.918;12.530;2022-07-12T04:30:54;12.20;99.90
13426;DHT22;6785;57.918;12.530;2022-07-12T04:33:21;12.30;99.90
13426;DHT22;6785;57.918;12.530;2022-07-12T04:35:49;12.40;99.90
13426;DHT22;6785;57.918;12.530;2022-07-12T04:38:15;12.50;99.90
13426;DHT22;6785;57.918;12.530;2022-07-12T04:40:42;12.60;99.90
13426;DHT22;6785;57.918;12.530;2022-07-12T04:43:09;12.70;99.90
13426;DHT22;6785;57.918;12.530;2022-07-12T04:45:36;12.80;99.90
13426;DHT22;6785;57.918;12.530;2022-07-12T04:48:05;12.80;99.90
13426;DHT22;6785;57.918;12.530;2022-07-12T04:50:32;12.90;99.90
13426;DHT22;6785;57.918;12.530;2022-07-12T04:52:58;13.10;99.90
13426;DHT22;6785;57.918;12.530;2022-07-12T04:55:25;13.20;99.90
13426;DHT22;6785;57.918;12.530;2022-07-12T04:57:52;13.30;99.90
13426;DHT22;6785;57.918;12.530;2022-07-12T05:00:19;13.40;99.90
13426;DHT22;6785;57.918;12.530;2022-07-12T05:02:46;13.60;99.90
13426;DHT22;6785;57.918;12.530;2022-07-12T05:05:14;13.70;99.90
13426;DHT22;6785;57.918;12.530;2022-07-12T05:07:41;13.80;99.90
13426;DHT22;6785;57.918;12.530;2022-07-12T05:10:09;14.00;99.90
13426;DHT22;6785;57.918;12.530;2022-07-12T05:12:36;14.10;99.90
13426;DHT22;6785;57.918;12.530;2022-07-12T05:15:04;14.30;99.90
13426;DHT22;6785;57.918;12.530;2022-07-12T05:17:31;14.50;99.90
13426;DHT22;6785;57.918;12.530;2022-07-12T05:19:58;14.60;99.90
13426;DHT22;6785;57.918;12.530;2022-07-12T05:22:26;14.80;99.90
13426;DHT22;6785;57.918;12.530;2022-07-12T05:24:53;14.90;99.90
13426;DHT22;6785;57.918;12.530;2022-07-12T05:27:20;15.00;99.90
13426;DHT22;6785;57.918;12.530;2022-07-12T05:29:47;15.10;99.90
13426;DHT22;6785;57.918;12.530;2022-07-12T05:32:14;15.20;99.90
13426;DHT22;6785;57.918;12.530;2022-07-12T05:34:41;15.20;99.90
13426;DHT22;6785;57.918;12.530;2022-07-12T05:37:08;15.30;99.90
13426;DHT22;6785;57.918;12.530;2022-07-12T05:39:36;15.30;99.90
13426;DHT22;6785;57.918;12.530;2022-07-12T05:42:04;15.40;99.90
13426;DHT22;6785;57.918;12.530;2022-07-12T05:44:31;15.50;99.90
13426;DHT22;6785;57.918;12.530;2022-07-12T05:46:58;15.60;99.90
13426;DHT22;6785;57.918;12.530;2022-07-12T05:49:25;15.70;99.90
13426;DHT22;6785;57.918;12.530;2022-07-12T05:51:51;15.80;99.90
13426;DHT22;6785;57.918;12.530;2022-07-12T05:54:37;15.90;99.90
13426;DHT22;6785;57.918;12.530;2022-07-12T05:57:04;16.10;99.90
13426;DHT22;6785;57.918;12.530;2022-07-12T05:59:31;16.20;99.90
13426;DHT22;6785;57.918;12.530;2022-07-12T06:01:58;16.30;99.90
13426;DHT22;6785;57.918;12.530;2022-07-12T06:04:25;16.40;99.90
13426;DHT22;6785;57.918;12.530;2022-07-12T06:06:51;16.40;99.90
13426;DHT22;6785;57.918;12.530;2022-07-12T06:09:18;16.40;99.90
13426;DHT22;6785;57.918;12.530;2022-07-12T06:11:46;16.30;99.90
13426;DHT22;6785;57.918;12.530;2022-07-12T06:14:14;16.40;99.90
13426;DHT22;6785;57.918;12.530;2022-07-12T06:16:40;16.30;99.90
13426;DHT22;6785;57.918;12.530;2022-07-12T06:19:07;16.30;99.90
13426;DHT22;6785;57.918;12.530;2022-07-12T06:21:35;16.20;99.90
13426;DHT22;6785;57.918;12.530;2022-07-12T06:24:02;16.30;99.90
13426;DHT22;6785;57.918;12.530;2022-07-12T06:26:28;16.50;99.90
13426;DHT22;6785;57.918;12.530;2022-07-12T06:28:57;16.50;99.90
13426;DHT22;6785;57.918;12.530;2022-07-12T06:31:23;16.70;99.90
13426;DHT22;6785;57.918;12.530;2022-07-12T06:33:50;16.90;99.90
13426;DHT22;6785;57.918;12.530;2022-07-12T06:36:17;17.10;99.90
13426;DHT22;6785;57.918;12.530;2022-07-12T06:38:44;17.20;99.90
13426;DHT22;6785;57.918;12.530;2022-07-12T06:41:11;17.40;99.90
13426;DHT22;6785;57.918;12.530;2022-07-12T06:43:39;17.60;99.90
13426;DHT22;6785;57.918;12.530;2022-07-12T06:46:07;17.80;99.90
13426;DHT22;6785;57.918;12.530;2022-07-12T06:48:34;17.70;99.90
13426;DHT22;6785;57.918;12.530;2022-07-12T06:51:00;17.90;99.90
13426;DHT22;6785;57.918;12.530;2022-07-12T06:53:27;17.90;99.90
13426;DHT22;6785;57.918;12.530;2022-07-12T06:55:54;18.10;99.90
13426;DHT22;6785;57.918;12.530;2022-07-12T06:58:22;18.20;99.90
13426;DHT22;6785;57.918;12.530;2022-07-12T07:00:49;18.30;99.90
13426;DHT22;6785;57.918;12.530;2022-07-12T07:03:18;18.40;99.90
13426;DHT22;6785;57.918;12.530;2022-07-12T07:05:44;18.50;99.90
13426;DHT22;6785;57.918;12.530;2022-07-12T07:08:11;18.60;99.90
13426;DHT22;6785;57.918;12.530;2022-07-12T07:10:38;18.90;99.90
13426;DHT22;6785;57.918;12.530;2022-07-12T07:13:07;19.10;99.90
13426;DHT22;6785;57.918;12.530;2022-07-12T07:15:36;19.30;99.90
13426;DHT22;6785;57.918;12.530;2022-07-12T07:18:05;19.30;99.90
13426;DHT22;6785;57.918;12.530;2022-07-12T07:20:33;19.40;99.90
13426;DHT22;6785;57.918;12.530;2022-07-12T07:23:00;19.50;99.90
13426;DHT22;6785;57.918;12.530;2022-07-12T07:25:27;19.80;99.90
13426;DHT22;6785;57.918;12.530;2022-07-12T07:27:54;19.90;99.90
13426;DHT22;6785;57.918;12.530;2022-07-12T07:30:21;20.00;99.90
13426;DHT22;6785;57.918;12.530;2022-07-12T07:33:05;20.00;99.90
13426;DHT22;6785;57.918;12.530;2022-07-12T07:35:33;20.40;99.90
13426;DHT22;6785;57.918;12.530;2022-07-12T07:38:00;20.40;99.90
13426;DHT22;6785;57.918;12.530;2022-07-12T07:40:27;20.80;99.90
13426;DHT22;6785;57.918;12.530;2022-07-12T07:42:54;21.10;99.90
13426;DHT22;6785;57.918;12.530;2022-07-12T07:45:21;21.30;99.90
13426;DHT22;6785;57.918;12.530;2022-07-12T07:47:48;21.10;99.90
13426;DHT22;6785;57.918;12.530;2022-07-12T07:50:16;21.00;99.90
13426;DHT22;6785;57.918;12.530;2022-07-12T07:52:44;21.00;99.90
13426;DHT22;6785;57.918;12.530;2022-07-12T07:55:11;21.30;99.90
13426;DHT22;6785;57.918;12.530;2022-07-12T07:57:38;21.50;99.90
13426;DHT22;6785;57.918;12.530;2022-07-12T08:00:05;21.80;99.90
13426;DHT22;6785;57.918;12.530;2022-07-12T08:02:32;22.00;99.90
13426;DHT22;6785;57.918;12.530;2022-07-12T08:04:59;22.10;99.90
13426;DHT22;6785;57.918;12.530;2022-07-12T08:07:26;22.20;99.90
13426;DHT22;6785;57.918;12.530;2022-07-12T08:09:54;22.10;99.90
13426;DHT22;6785;57.918;12.530;2022-07-12T08:12:21;21.90;99.90
13426;DHT22;6785;57.918;12.530;2022-07-12T08:14:48;21.90;99.90
13426;DHT22;6785;57.918;12.530;2022-07-12T08:17:15;22.20;99.90
13426;DHT22;6785;57.918;12.530;2022-07-12T08:19:41;22.30;99.90
13426;DHT22;6785;57.918;12.530;2022-07-12T08:22:08;22.10;99.90
13426;DHT22;6785;57.918;12.530;2022-07-12T08:24:35;22.20;99.90
13426;DHT22;6785;57.918;12.530;2022-07-12T08:27:04;22.40;99.90
13426;DHT22;6785;57.918;12.530;2022-07-12T08:29:31;22.30;99.90
13426;DHT22;6785;57.918;12.530;2022-07-12T08:31:58;22.30;99.90
13426;DHT22;6785;57.918;12.530;2022-07-12T08:34:25;22.20;99.90
13426;DHT22;6785;57.918;12.530;2022-07-12T08:36:52;22.30;99.90
13426;DHT22;6785;57.918;12.530;2022-07-12T08:39:18;21.90;99.90
13426;DHT22;6785;57.918;12.530;2022-07-12T08:41:45;21.80;99.90
13426;DHT22;6785;57.918;12.530;2022-07-12T08:44:14;22.10;99.90
13426;DHT22;6785;57.918;12.530;2022-07-12T08:46:41;22.10;99.90
13426;DHT22;6785;57.918;12.530;2022-07-12T08:49:08;22.00;99.90
13426;DHT22;6785;57.918;12.530;2022-07-12T08:51:35;22.00;99.90
13426;DHT22;6785;57.918;12.530;2022-07-12T08:54:06;22.10;99.90
13426;DHT22;6785;57.918;12.530;2022-07-12T08:56:35;22.30;99.90
13426;DHT22;6785;57.918;12.530;2022-07-12T08:59:16;22.50;99.90
13426;DHT22;6785;57.918;12.530;2022-07-12T09:01:45;22.30;99.90
13426;DHT22;6785;57.918;12.530;2022-07-12T09:04:14;22.50;99.90
13426;DHT22;6785;57.918;12.530;2022-07-12T09:06:41;22.60;99.90
13426;DHT22;6785;57.918;12.530;2022-07-12T09:09:08;22.70;99.90
13426;DHT22;6785;57.918;12.530;2022-07-12T09:11:36;22.50;99.90
13426;DHT22;6785;57.918;12.530;2022-07-12T09:14:04;22.30;99.90
13426;DHT22;6785;57.918;12.530;2022-07-12T09:16:32;22.20;99.90
13426;DHT22;6785;57.918;12.530;2022-07-12T09:19:13;22.30;99.90
13426;DHT22;6785;57.918;12.530;2022-07-12T09:21:47;22.20;99.90
13426;DHT22;6785;57.918;12.530;2022-07-12T09:24:16;22.40;99.90
13426;DHT22;6785;57.918;12.530;2022-07-12T09:26:43;22.70;99.90
13426;DHT22;6785;57.918;12.530;2022-07-12T09:29:12;22.90;99.90
13426;DHT22;6785;57.918;12.530;2022-07-12T09:31:42;22.90;99.90
13426;DHT22;6785;57.918;12.530;2022-07-12T09:34:24;22.90;99.90
13426;DHT22;6785;57.918;12.530;2022-07-12T09:37:09;23.00;99.90
13426;DHT22;6785;57.918;12.530;2022-07-12T09:39:36;23.10;99.90
13426;DHT22;6785;57.918;12.530;2022-07-12T09:42:07;23.10;99.90
13426;DHT22;6785;57.918;12.530;2022-07-12T09:44:35;23.20;99.90
13426;DHT22;6785;57.918;12.530;2022-07-12T09:47:07;23.20;99.90
13426;DHT22;6785;57.918;12.530;2022-07-12T09:49:35;22.90;99.90
13426;DHT22;6785;57.918;12.530;2022-07-12T09:52:05;23.00;99.90
13426;DHT22;6785;57.918;12.530;2022-07-12T09:54:35;23.20;99.90
13426;DHT22;6785;57.918;12.530;2022-07-12T09:57:13;23.20;99.90
13426;DHT22;6785;57.918;12.530;2022-07-12T09:59:45;23.20;99.90
13426;DHT22;6785;57.918;12.530;2022-07-12T10:02:14;23.30;99.90
13426;DHT22;6785;57.918;12.530;2022-07-12T10:04:42;23.50;99.90
13426;DHT22;6785;57.918;12.530;2022-07-12T10:07:10;23.30;99.90
13426;DHT22;6785;57.918;12.530;2022-07-12T10:09:40;23.20;99.90
13426;DHT22;6785;57.918;12.530;2022-07-12T10:12:08;23.30;99.90
13426;DHT22;6785;57.918;12.530;2022-07-12T10:14:36;23.10;99.90
13426;DHT22;6785;57.918;12.530;2022-07-12T10:17:05;23.10;99.90
13426;DHT22;6785;57.918;12.530;2022-07-12T10:19:36;22.80;99.90
13426;DHT22;6785;57.918;12.530;2022-07-12T10:22:05;22.40;99.90
13426;DHT22;6785;57.918;12.530;2022-07-12T10:24:46;22.30;99.90
13426;DHT22;6785;57.918;12.530;2022-07-12T10:27:30;22.10;99.90
13426;DHT22;6785;57.918;12.530;2022-07-12T10:30:19;22.10;99.90
13426;DHT22;6785;57.918;12.530;2022-07-12T10:32:48;22.10;99.90
13426;DHT22;6785;57.918;12.530;2022-07-12T10:35:18;22.20;99.90
13426;DHT22;6785;57.918;12.530;2022-07-12T10:38:19;22.30;99.90
13426;DHT22;6785;57.918;12.530;2022-07-12T10:40:49;22.50;99.90
13426;DHT22;6785;57.918;12.530;2022-07-12T10:43:21;22.80;99.90
13426;DHT22;6785;57.918;12.530;2022-07-12T10:46:14;22.60;99.90
13426;DHT22;6785;57.918;12.530;2022-07-12T10:48:43;22.70;99.90
13426;DHT22;6785;57.918;12.530;2022-07-12T10:51:15;22.70;99.90
13426;DHT22;6785;57.918;12.530;2022-07-12T10:53:44;22.50;99.90
13426;DHT22;6785;57.918;12.530;2022-07-12T10:56:16;22.30;99.90
13426;DHT22;6785;57.918;12.530;2022-07-12T10:58:45;22.30;99.90
13426;DHT22;6785;57.918;12.530;2022-07-12T11:01:14;22.30;99.90
13426;DHT22;6785;57.918;12.530;2022-07-12T11:03:43;22.20;99.90
13426;DHT22;6785;57.918;12.530;2022-07-12T11:06:12;22.10;99.90
13426;DHT22;6785;57.918;12.530;2022-07-12T11:08:57;22.10;99.90
13426;DHT22;6785;57.918;12.530;2022-07-12T11:11:26;22.00;99.90
13426;DHT22;6785;57.918;12.530;2022-07-12T11:13:54;22.00;99.90
13426;DHT22;6785;57.918;12.530;2022-07-12T11:16:21;22.10;99.90
13426;DHT22;6785;57.918;12.530;2022-07-12T11:18:49;22.10;99.90
13426;DHT22;6785;57.918;12.530;2022-07-12T11:21:16;22.10;99.90
13426;DHT22;6785;57.918;12.530;2022-07-12T11:23:43;22.30;99.90
13426;DHT22;6785;57.918;12.530;2022-07-12T11:26:12;22.50;99.90
13426;DHT22;6785;57.918;12.530;2022-07-12T11:28:41;22.70;99.90
13426;DHT22;6785;57.918;12.530;2022-07-12T11:31:10;22.80;99.90
13426;DHT22;6785;57.918;12.530;2022-07-12T11:33:38;22.80;99.90
13426;DHT22;6785;57.918;12.530;2022-07-12T11:36:08;22.60;99.90
13426;DHT22;6785;57.918;12.530;2022-07-12T11:38:36;22.60;99.90
13426;DHT22;6785;57.918;12.530;2022-07-12T11:41:04;22.70;99.90
13426;DHT22;6785;57.918;12.530;2022-07-12T11:43:33;22.70;99.90
13426;DHT22;6785;57.918;12.530;2022-07-12T11:46:01;22.80;99.90
13426;DHT22;6785;57.918;12.530;2022-07-12T11:48:29;22.90;99.90
13426;DHT22;6785;57.918;12.530;2022-07-12T11:51:00;22.90;99.90
13426;DHT22;6785;57.918;12.530;2022-07-12T11:53:28;23.10;99.90
13426;DHT22;6785;57.918;12.530;2022-07-12T11:55:56;23.20;99.90
13426;DHT22;6785;57.918;12.530;2022-07-12T11:58:25;23.30;99.90
13426;DHT22;6785;57.918;12.530;2022-07-12T12:00:55;23.40;99.90
13426;DHT22;6785;57.918;12.530;2022-07-12T12:03:23;23.50;99.90
13426;DHT22;6785;57.918;12.530;2022-07-12T12:05:51;23.50;99.90
13426;DHT22;6785;57.918;12.530;2022-07-12T12:08:18;23.70;99.90
13426;DHT22;6785;57.918;12.530;2022-07-12T12:10:53;23.80;99.90
13426;DHT22;6785;57.918;12.530;2022-07-12T12:13:21;23.90;99.90
13426;DHT22;6785;57.918;12.530;2022-07-12T12:15:50;24.00;99.90
13426;DHT22;6785;57.918;12.530;2022-07-12T12:18:29;23.90;99.90
13426;DHT22;6785;57.918;12.530;2022-07-12T12:20:58;23.70;99.90
13426;DHT22;6785;57.918;12.530;2022-07-12T12:23:25;23.50;99.90
13426;DHT22;6785;57.918;12.530;2022-07-12T12:25:52;23.60;99.90
13426;DHT22;6785;57.918;12.530;2022-07-12T12:28:19;23.40;99.90
13426;DHT22;6785;57.918;12.530;2022-07-12T12:30:51;23.40;99.90
13426;DHT22;6785;57.918;12.530;2022-07-12T12:33:36;23.40;99.90
13426;DHT22;6785;57.918;12.530;2022-07-12T12:36:14;23.50;99.90
13426;DHT22;6785;57.918;12.530;2022-07-12T12:38:41;23.60;99.90
13426;DHT22;6785;57.918;12.530;2022-07-12T12:41:09;23.70;99.90
13426;DHT22;6785;57.918;12.530;2022-07-12T12:43:36;23.70;99.90
13426;DHT22;6785;57.918;12.530;2022-07-12T12:46:03;23.70;99.90
13426;DHT22;6785;57.918;12.530;2022-07-12T12:48:31;23.60;99.90
13426;DHT22;6785;57.918;12.530;2022-07-12T12:51:06;23.70;99.90
13426;DHT22;6785;57.918;12.530;2022-07-12T12:53:33;23.80;99.90
13426;DHT22;6785;57.918;12.530;2022-07-12T12:56:05;24.00;99.90
13426;DHT22;6785;57.918;12.530;2022-07-12T12:58:33;24.10;99.90
13426;DHT22;6785;57.918;12.530;2022-07-12T13:01:00;24.10;99.90
13426;DHT22;6785;57.918;12.530;2022-07-12T13:03:27;23.90;99.90
13426;DHT22;6785;57.918;12.530;2022-07-12T13:05:53;23.90;99.90
13426;DHT22;6785;57.918;12.530;2022-07-12T13:08:22;23.80;99.90
13426;DHT22;6785;57.918;12.530;2022-07-12T13:10:49;23.70;99.90
13426;DHT22;6785;57.918;12.530;2022-07-12T13:13:38;23.60;99.90
13426;DHT22;6785;57.918;12.530;2022-07-12T13:16:05;23.50;99.90
13426;DHT22;6785;57.918;12.530;2022-07-12T13:18:32;23.40;99.90
13426;DHT22;6785;57.918;12.530;2022-07-12T13:20:59;23.50;99.90
13426;DHT22;6785;57.918;12.530;2022-07-12T13:23:28;23.50;99.90
13426;DHT22;6785;57.918;12.530;2022-07-12T13:25:54;23.50;99.90
13426;DHT22;6785;57.918;12.530;2022-07-12T13:28:21;23.60;99.90
13426;DHT22;6785;57.918;12.530;2022-07-12T13:30:48;23.60;99.90
13426;DHT22;6785;57.918;12.530;2022-07-12T13:33:15;23.70;99.90
13426;DHT22;6785;57.918;12.530;2022-07-12T13:35:42;23.80;99.90
13426;DHT22;6785;57.918;12.530;2022-07-12T13:38:10;23.90;99.90
13426;DHT22;6785;57.918;12.530;2022-07-12T13:40:38;24.10;99.90
13426;DHT22;6785;57.918;12.530;2022-07-12T13:43:05;24.00;99.90
13426;DHT22;6785;57.918;12.530;2022-07-12T13:45:32;23.90;99.90
13426;DHT22;6785;57.918;12.530;2022-07-12T13:48:00;23.90;99.90
13426;DHT22;6785;57.918;12.530;2022-07-12T13:50:28;23.80;99.90
13426;DHT22;6785;57.918;12.530;2022-07-12T13:52:55;23.70;99.90
13426;DHT22;6785;57.918;12.530;2022-07-12T13:55:21;23.70;99.90
13426;DHT22;6785;57.918;12.530;2022-07-12T13:57:50;23.90;99.90
13426;DHT22;6785;57.918;12.530;2022-07-12T14:00:17;23.80;99.90
13426;DHT22;6785;57.918;12.530;2022-07-12T14:02:45;23.90;99.90
13426;DHT22;6785;57.918;12.530;2022-07-12T14:05:13;24.00;99.90
13426;DHT22;6785;57.918;12.530;2022-07-12T14:07:41;24.20;99.90
13426;DHT22;6785;57.918;12.530;2022-07-12T14:10:09;24.00;99.90
13426;DHT22;6785;57.918;12.530;2022-07-12T14:12:36;24.10;99.90
13426;DHT22;6785;57.918;12.530;2022-07-12T14:15:05;23.80;99.90
13426;DHT22;6785;57.918;12.530;2022-07-12T14:17:46;23.60;99.90
13426;DHT22;6785;57.918;12.530;2022-07-12T14:20:15;23.40;99.90
13426;DHT22;6785;57.918;12.530;2022-07-12T14:22:43;23.30;99.90
13426;DHT22;6785;57.918;12.530;2022-07-12T14:25:10;23.20;99.90
13426;DHT22;6785;57.918;12.530;2022-07-12T14:27:38;23.10;99.90
13426;DHT22;6785;57.918;12.530;2022-07-12T14:30:09;22.90;99.90
13426;DHT22;6785;57.918;12.530;2022-07-12T14:32:37;22.80;99.90
13426;DHT22;6785;57.918;12.530;2022-07-12T14:35:05;22.70;99.90
13426;DHT22;6785;57.918;12.530;2022-07-12T14:37:32;22.90;99.90
13426;DHT22;6785;57.918;12.530;2022-07-12T14:39:59;23.10;99.90
13426;DHT22;6785;57.918;12.530;2022-07-12T14:42:26;23.20;99.90
13426;DHT22;6785;57.918;12.530;2022-07-12T14:44:53;23.30;99.90
13426;DHT22;6785;57.918;12.530;2022-07-12T14:47:21;23.30;99.90
13426;DHT22;6785;57.918;12.530;2022-07-12T14:49:48;23.20;99.90
13426;DHT22;6785;57.918;12.530;2022-07-12T14:52:15;23.30;99.90
13426;DHT22;6785;57.918;12.530;2022-07-12T14:54:42;23.20;99.90
13426;DHT22;6785;57.918;12.530;2022-07-12T14:57:10;22.90;99.90
13426;DHT22;6785;57.918;12.530;2022-07-12T14:59:37;22.80;99.90
13426;DHT22;6785;57.918;12.530;2022-07-12T15:02:04;22.80;99.90
13426;DHT22;6785;57.918;12.530;2022-07-12T15:04:33;22.70;99.90
13426;DHT22;6785;57.918;12.530;2022-07-12T15:07:00;22.60;99.90
13426;DHT22;6785;57.918;12.530;2022-07-12T15:09:27;22.40;99.90
13426;DHT22;6785;57.918;12.530;2022-07-12T15:11:55;22.40;99.90
13426;DHT22;6785;57.918;12.530;2022-07-12T15:14:22;22.30;99.90
13426;DHT22;6785;57.918;12.530;2022-07-12T15:16:49;22.20;99.90
13426;DHT22;6785;57.918;12.530;2022-07-12T15:19:16;22.20;99.90
13426;DHT22;6785;57.918;12.530;2022-07-12T15:21:44;22.00;99.90
13426;DHT22;6785;57.918;12.530;2022-07-12T15:24:11;21.90;99.90
13426;DHT22;6785;57.918;12.530;2022-07-12T15:26:38;21.90;99.90
13426;DHT22;6785;57.918;12.530;2022-07-12T15:29:05;21.90;99.90
13426;DHT22;6785;57.918;12.530;2022-07-12T15:31:32;22.10;99.90
13426;DHT22;6785;57.918;12.530;2022-07-12T15:34:00;22.10;99.90
13426;DHT22;6785;57.918;12.530;2022-07-12T15:36:27;21.90;99.90